UAL1996 KMSO-KDEN
Flight info
| Callsign | UAL1996 |
|---|---|
| Flight time | 1h 29m |
| Altitude | 17000 |
| Route | GRZLY4 MSO V86 CPN/N0453F350 TOFUU FLATI5 |
| Aircraft | B737/M-SDE2E3FGHIRWXY/LB1 |
Departure
| Time | 2026-04-26 00:20 |
|---|---|
| Airport | Missoula Montana Airport (KMSO) |
Arrival
| Time | 2026-04-26 01:49 |
|---|---|
| Airport | Denver International Airport (KDEN) |
| Time | Latitude | Longitude | Altitude | Speed | Heading |
|---|---|---|---|---|---|
| 2026-04-25 23:29 | 46.91810 | -114.08424 | 3198 ft | 0 kts | 54° |
| 2026-04-26 00:09 | 46.91805 | -114.08433 | 3197 ft | 3 kts | 54° |
| 2026-04-26 00:10 | 46.91794 | -114.08455 | 3200 ft | 3 kts | 54° |
| 2026-04-26 00:10 | 46.91783 | -114.08477 | 3200 ft | 3 kts | 54° |
| 2026-04-26 00:10 | 46.91769 | -114.08494 | 3198 ft | 3 kts | 353° |
| 2026-04-26 00:10 | 46.91761 | -114.08491 | 3200 ft | 0 kts | 322° |
| 2026-04-26 00:14 | 46.91767 | -114.08498 | 3199 ft | 2 kts | 322° |
| 2026-04-26 00:14 | 46.91795 | -114.08543 | 3201 ft | 10 kts | 308° |
| 2026-04-26 00:14 | 46.91837 | -114.08627 | 3204 ft | 10 kts | 308° |
| 2026-04-26 00:15 | 46.91881 | -114.08706 | 3203 ft | 10 kts | 309° |
| 2026-04-26 00:15 | 46.91927 | -114.08798 | 3198 ft | 12 kts | 289° |
| 2026-04-26 00:15 | 46.91893 | -114.08897 | 3203 ft | 12 kts | 223° |
| 2026-04-26 00:15 | 46.91834 | -114.08978 | 3202 ft | 11 kts | 223° |
| 2026-04-26 00:16 | 46.91785 | -114.09063 | 3199 ft | 11 kts | 256° |
| 2026-04-26 00:16 | 46.91821 | -114.09156 | 3202 ft | 11 kts | 309° |
| 2026-04-26 00:16 | 46.91871 | -114.09244 | 3202 ft | 14 kts | 309° |
| 2026-04-26 00:16 | 46.91937 | -114.09355 | 3200 ft | 14 kts | 311° |
| 2026-04-26 00:17 | 46.92016 | -114.09485 | 3200 ft | 22 kts | 311° |
| 2026-04-26 00:17 | 46.92109 | -114.09658 | 3200 ft | 21 kts | 314° |
| 2026-04-26 00:17 | 46.92209 | -114.09815 | 3201 ft | 21 kts | 310° |
| 2026-04-26 00:17 | 46.92300 | -114.09971 | 3202 ft | 20 kts | 310° |
| 2026-04-26 00:18 | 46.92389 | -114.10125 | 3201 ft | 20 kts | 310° |
| 2026-04-26 00:18 | 46.92476 | -114.10274 | 3200 ft | 19 kts | 310° |
| 2026-04-26 00:18 | 46.92560 | -114.10418 | 3201 ft | 18 kts | 310° |
| 2026-04-26 00:18 | 46.92545 | -114.10571 | 3199 ft | 18 kts | 221° |
| 2026-04-26 00:19 | 46.92441 | -114.10581 | 3197 ft | 17 kts | 128° |
| 2026-04-26 00:19 | 46.92264 | -114.10277 | 3199 ft | 72 kts | 130° |
| 2026-04-26 00:19 | 46.91788 | -114.09459 | 3200 ft | 137 kts | 130° |
| 2026-04-26 00:19 | 46.91081 | -114.08213 | 3357 ft | 173 kts | 129° |
| 2026-04-26 00:20 | 46.90274 | -114.06778 | 3836 ft | 195 kts | 128° |
| 2026-04-26 00:20 | 46.89117 | -114.05568 | 4179 ft | 221 kts | 164° |
| 2026-04-26 00:20 | 46.87481 | -114.05542 | 4346 ft | 254 kts | 190° |
| 2026-04-26 00:20 | 46.85666 | -114.05951 | 4951 ft | 270 kts | 192° |
| 2026-04-26 00:21 | 46.83859 | -114.06725 | 6199 ft | 269 kts | 197° |
| 2026-04-26 00:21 | 46.81995 | -114.07033 | 7128 ft | 277 kts | 173° |
| 2026-04-26 00:21 | 46.80098 | -114.06482 | 8114 ft | 277 kts | 167° |
| 2026-04-26 00:21 | 46.78299 | -114.05516 | 9167 ft | 279 kts | 150° |
| 2026-04-26 00:22 | 46.76873 | -114.03628 | 10035 ft | 286 kts | 124° |
| 2026-04-26 00:22 | 46.76101 | -114.00919 | 10746 ft | 298 kts | 102° |
| 2026-04-26 00:22 | 46.76026 | -113.97823 | 11285 ft | 316 kts | 83° |
| 2026-04-26 00:22 | 46.76626 | -113.94703 | 12031 ft | 324 kts | 65° |
| 2026-04-26 00:23 | 46.77877 | -113.91994 | 13067 ft | 323 kts | 46° |
| 2026-04-26 00:23 | 46.79709 | -113.90032 | 13712 ft | 336 kts | 22° |
| 2026-04-26 00:23 | 46.81972 | -113.88837 | 13968 ft | 359 kts | 26° |
| 2026-04-26 00:23 | 46.83920 | -113.86442 | 14410 ft | 377 kts | 54° |
| 2026-04-26 00:24 | 46.84947 | -113.82921 | 15203 ft | 381 kts | 81° |
| 2026-04-26 00:24 | 46.84875 | -113.79070 | 16063 ft | 383 kts | 105° |
| 2026-04-26 00:24 | 46.83726 | -113.75576 | 16861 ft | 385 kts | 130° |
| 2026-04-26 00:24 | 46.81793 | -113.72863 | 17646 ft | 387 kts | 141° |
| 2026-04-26 00:25 | 46.79673 | -113.70390 | 18343 ft | 394 kts | 146° |
| 2026-04-26 00:25 | 46.77404 | -113.68103 | 18994 ft | 398 kts | 149° |
| 2026-04-26 00:25 | 46.75074 | -113.65903 | 19734 ft | 401 kts | 149° |
| 2026-04-26 00:25 | 46.72710 | -113.63693 | 20451 ft | 405 kts | 149° |
| 2026-04-26 00:26 | 46.70334 | -113.61447 | 21121 ft | 409 kts | 149° |
| 2026-04-26 00:26 | 46.67969 | -113.59181 | 21782 ft | 414 kts | 148° |
| 2026-04-26 00:26 | 46.65560 | -113.56849 | 22428 ft | 418 kts | 148° |
| 2026-04-26 00:26 | 46.63128 | -113.54481 | 23080 ft | 422 kts | 148° |
| 2026-04-26 00:27 | 46.60676 | -113.52090 | 23681 ft | 426 kts | 148° |
| 2026-04-26 00:27 | 46.58210 | -113.49684 | 24274 ft | 428 kts | 148° |
| 2026-04-26 00:27 | 46.55727 | -113.47266 | 24819 ft | 431 kts | 148° |
| 2026-04-26 00:27 | 46.53226 | -113.44833 | 25320 ft | 435 kts | 148° |
| 2026-04-26 00:28 | 46.50705 | -113.42383 | 25810 ft | 438 kts | 148° |
| 2026-04-26 00:28 | 46.48160 | -113.39914 | 26301 ft | 441 kts | 147° |
| 2026-04-26 00:28 | 46.45597 | -113.37432 | 26794 ft | 445 kts | 147° |
| 2026-04-26 00:28 | 46.43080 | -113.34789 | 27259 ft | 449 kts | 141° |
| 2026-04-26 00:29 | 46.40832 | -113.31622 | 27726 ft | 453 kts | 134° |
| 2026-04-26 00:29 | 46.38665 | -113.28279 | 28189 ft | 456 kts | 134° |
| 2026-04-26 00:29 | 46.36501 | -113.24898 | 28632 ft | 459 kts | 133° |
| 2026-04-26 00:29 | 46.34315 | -113.21506 | 29061 ft | 462 kts | 134° |
| 2026-04-26 00:30 | 46.32851 | -113.19257 | 29344 ft | 464 kts | 134° |
| 2026-04-26 00:30 | 46.30622 | -113.15861 | 29737 ft | 467 kts | 134° |
| 2026-04-26 00:30 | 46.28367 | -113.12450 | 30119 ft | 470 kts | 134° |
| 2026-04-26 00:30 | 46.26099 | -113.09031 | 30437 ft | 473 kts | 135° |
| 2026-04-26 00:31 | 46.23083 | -113.04488 | 30942 ft | 473 kts | 135° |
| 2026-04-26 00:31 | 46.21542 | -113.02169 | 31221 ft | 473 kts | 135° |
| 2026-04-26 00:31 | 46.19260 | -112.98742 | 31600 ft | 473 kts | 135° |
| 2026-04-26 00:31 | 46.16980 | -112.95332 | 31966 ft | 473 kts | 135° |
| 2026-04-26 00:32 | 46.14692 | -112.91916 | 32351 ft | 473 kts | 135° |
| 2026-04-26 00:32 | 46.12403 | -112.88502 | 32708 ft | 473 kts | 136° |
| 2026-04-26 00:32 | 46.07852 | -112.81718 | 33391 ft | 474 kts | 136° |
| 2026-04-26 00:33 | 46.05554 | -112.78300 | 33686 ft | 476 kts | 136° |
| 2026-04-26 00:33 | 46.03243 | -112.74873 | 33976 ft | 477 kts | 137° |
| 2026-04-26 00:33 | 46.00875 | -112.71539 | 34268 ft | 476 kts | 139° |
| 2026-04-26 00:33 | 45.98455 | -112.68297 | 34558 ft | 475 kts | 140° |
| 2026-04-26 00:34 | 45.96010 | -112.65097 | 34832 ft | 475 kts | 140° |
| 2026-04-26 00:34 | 45.93560 | -112.61912 | 35069 ft | 476 kts | 141° |
| 2026-04-26 00:34 | 45.91105 | -112.58715 | 35293 ft | 477 kts | 141° |
| 2026-04-26 00:34 | 45.88648 | -112.55505 | 35528 ft | 477 kts | 140° |
| 2026-04-26 00:35 | 45.86197 | -112.52291 | 35809 ft | 477 kts | 140° |
| 2026-04-26 00:35 | 45.83751 | -112.49078 | 36049 ft | 477 kts | 140° |
| 2026-04-26 00:35 | 45.81307 | -112.45862 | 36284 ft | 477 kts | 140° |
| 2026-04-26 00:35 | 45.78886 | -112.42679 | 36519 ft | 478 kts | 140° |
| 2026-04-26 00:36 | 45.76435 | -112.39458 | 36745 ft | 478 kts | 140° |
| 2026-04-26 00:36 | 45.73982 | -112.36239 | 36939 ft | 479 kts | 141° |
| 2026-04-26 00:36 | 45.71524 | -112.33019 | 37152 ft | 479 kts | 141° |
| 2026-04-26 00:36 | 45.69066 | -112.29803 | 37387 ft | 479 kts | 141° |
| 2026-04-26 00:37 | 45.66606 | -112.26589 | 37622 ft | 479 kts | 141° |
| 2026-04-26 00:37 | 45.64146 | -112.23378 | 37834 ft | 479 kts | 141° |
| 2026-04-26 00:37 | 45.61677 | -112.20161 | 38052 ft | 480 kts | 141° |
| 2026-04-26 00:37 | 45.59210 | -112.16950 | 38255 ft | 480 kts | 141° |
| 2026-04-26 00:38 | 45.56734 | -112.13727 | 38479 ft | 480 kts | 140° |
| 2026-04-26 00:38 | 45.54268 | -112.10521 | 38685 ft | 479 kts | 141° |
| 2026-04-26 00:38 | 45.51803 | -112.07323 | 38847 ft | 479 kts | 141° |
| 2026-04-26 00:38 | 45.49327 | -112.04120 | 38903 ft | 482 kts | 141° |
| 2026-04-26 00:39 | 45.44353 | -111.97697 | 38911 ft | 481 kts | 141° |
| 2026-04-26 00:39 | 45.39449 | -111.91379 | 38931 ft | 477 kts | 141° |
| 2026-04-26 00:40 | 45.34544 | -111.85065 | 38933 ft | 475 kts | 141° |
| 2026-04-26 00:40 | 45.29644 | -111.78774 | 38937 ft | 474 kts | 141° |
| 2026-04-26 00:41 | 45.24738 | -111.72494 | 38930 ft | 475 kts | 142° |
| 2026-04-26 00:41 | 45.19816 | -111.66210 | 38941 ft | 477 kts | 142° |
| 2026-04-26 00:42 | 45.14865 | -111.59905 | 38947 ft | 480 kts | 142° |
| 2026-04-26 00:42 | 45.09875 | -111.53565 | 38956 ft | 484 kts | 142° |
| 2026-04-26 00:43 | 45.04849 | -111.47195 | 38984 ft | 487 kts | 142° |
| 2026-04-26 00:43 | 44.99826 | -111.40846 | 39002 ft | 488 kts | 142° |
| 2026-04-26 00:44 | 44.94758 | -111.34451 | 38976 ft | 488 kts | 142° |
| 2026-04-26 00:44 | 44.89684 | -111.28061 | 38950 ft | 488 kts | 143° |
| 2026-04-26 00:45 | 44.84613 | -111.21693 | 38926 ft | 487 kts | 143° |
| 2026-04-26 00:45 | 44.79549 | -111.15352 | 38900 ft | 486 kts | 143° |
| 2026-04-26 00:46 | 44.74500 | -111.09046 | 38896 ft | 485 kts | 143° |
| 2026-04-26 00:46 | 44.69456 | -111.02760 | 38897 ft | 484 kts | 143° |
| 2026-04-26 00:47 | 44.64418 | -110.96497 | 38915 ft | 483 kts | 143° |
| 2026-04-26 00:47 | 44.59413 | -110.90289 | 38917 ft | 483 kts | 143° |
| 2026-04-26 00:48 | 44.54375 | -110.84059 | 38960 ft | 483 kts | 143° |
| 2026-04-26 00:48 | 44.49324 | -110.77826 | 39002 ft | 484 kts | 143° |
| 2026-04-26 00:49 | 44.44261 | -110.71595 | 38999 ft | 485 kts | 144° |
| 2026-04-26 00:49 | 44.39183 | -110.65358 | 39011 ft | 486 kts | 144° |
| 2026-04-26 00:50 | 44.34096 | -110.59121 | 39020 ft | 487 kts | 143° |
| 2026-04-26 00:50 | 44.28989 | -110.52876 | 39017 ft | 489 kts | 144° |
| 2026-04-26 00:51 | 44.23863 | -110.46631 | 39013 ft | 489 kts | 144° |
| 2026-04-26 00:51 | 44.18773 | -110.40440 | 39019 ft | 490 kts | 144° |
| 2026-04-26 00:52 | 44.13626 | -110.34195 | 39005 ft | 490 kts | 144° |
| 2026-04-26 00:52 | 44.08471 | -110.27951 | 38995 ft | 490 kts | 144° |
| 2026-04-26 00:53 | 44.03320 | -110.21730 | 39000 ft | 491 kts | 144° |
| 2026-04-26 00:53 | 43.98187 | -110.15544 | 39004 ft | 491 kts | 144° |
| 2026-04-26 00:54 | 43.93024 | -110.09338 | 38987 ft | 490 kts | 145° |
| 2026-04-26 00:54 | 43.87878 | -110.03165 | 38985 ft | 489 kts | 145° |
| 2026-04-26 00:55 | 43.82731 | -109.97006 | 38988 ft | 489 kts | 145° |
| 2026-04-26 00:55 | 43.77577 | -109.90861 | 38981 ft | 487 kts | 145° |
| 2026-04-26 00:56 | 43.72446 | -109.84752 | 38972 ft | 486 kts | 146° |
| 2026-04-26 00:56 | 43.67324 | -109.78666 | 38954 ft | 485 kts | 146° |
| 2026-04-26 00:57 | 43.62218 | -109.72614 | 38923 ft | 483 kts | 146° |
| 2026-04-26 00:57 | 43.57112 | -109.66577 | 38924 ft | 482 kts | 146° |
| 2026-04-26 00:58 | 43.52014 | -109.60567 | 38928 ft | 482 kts | 146° |
| 2026-04-26 00:58 | 43.46938 | -109.54596 | 38911 ft | 484 kts | 146° |
| 2026-04-26 00:59 | 43.41810 | -109.48574 | 38915 ft | 485 kts | 146° |
| 2026-04-26 00:59 | 43.36666 | -109.42549 | 38914 ft | 487 kts | 147° |
| 2026-04-26 01:00 | 43.31493 | -109.36503 | 38866 ft | 489 kts | 147° |
| 2026-04-26 01:00 | 43.26309 | -109.30455 | 38881 ft | 489 kts | 146° |
| 2026-04-26 01:01 | 43.21119 | -109.24415 | 38881 ft | 490 kts | 147° |
| 2026-04-26 01:01 | 43.15911 | -109.18370 | 38889 ft | 490 kts | 146° |
| 2026-04-26 01:02 | 43.10700 | -109.12335 | 38893 ft | 490 kts | 147° |
| 2026-04-26 01:02 | 43.05506 | -109.06331 | 38883 ft | 491 kts | 146° |
| 2026-04-26 01:03 | 43.00268 | -109.00298 | 38862 ft | 492 kts | 147° |
| 2026-04-26 01:03 | 42.95032 | -108.94276 | 38869 ft | 491 kts | 147° |
| 2026-04-26 01:04 | 42.89834 | -108.88312 | 38873 ft | 490 kts | 147° |
| 2026-04-26 01:04 | 42.84620 | -108.82344 | 38842 ft | 489 kts | 147° |
| 2026-04-26 01:05 | 42.79403 | -108.76382 | 38866 ft | 488 kts | 147° |
| 2026-04-26 01:05 | 42.74195 | -108.70447 | 38866 ft | 487 kts | 147° |
| 2026-04-26 01:06 | 42.68998 | -108.64539 | 38869 ft | 487 kts | 147° |
| 2026-04-26 01:06 | 42.63802 | -108.58647 | 38849 ft | 486 kts | 147° |
| 2026-04-26 01:07 | 42.61199 | -108.55701 | 38676 ft | 490 kts | 147° |
| 2026-04-26 01:07 | 42.58609 | -108.52774 | 38444 ft | 490 kts | 147° |
| 2026-04-26 01:07 | 42.55994 | -108.49817 | 38163 ft | 487 kts | 147° |
| 2026-04-26 01:07 | 42.53393 | -108.46877 | 37865 ft | 486 kts | 148° |
| 2026-04-26 01:08 | 42.50798 | -108.43950 | 37570 ft | 485 kts | 148° |
| 2026-04-26 01:08 | 42.48205 | -108.41028 | 37304 ft | 484 kts | 148° |
| 2026-04-26 01:08 | 42.45616 | -108.38116 | 37045 ft | 484 kts | 148° |
| 2026-04-26 01:08 | 42.43012 | -108.35194 | 36889 ft | 487 kts | 148° |
| 2026-04-26 01:09 | 42.37774 | -108.29324 | 36835 ft | 488 kts | 149° |
| 2026-04-26 01:09 | 42.32560 | -108.23482 | 36823 ft | 485 kts | 149° |
| 2026-04-26 01:10 | 42.27375 | -108.17686 | 36826 ft | 482 kts | 149° |
| 2026-04-26 01:10 | 42.22246 | -108.11970 | 36818 ft | 480 kts | 149° |
| 2026-04-26 01:11 | 42.17100 | -108.06250 | 36816 ft | 478 kts | 149° |
| 2026-04-26 01:11 | 42.11964 | -108.00554 | 36821 ft | 478 kts | 149° |
| 2026-04-26 01:12 | 42.06822 | -107.94863 | 36827 ft | 478 kts | 149° |
| 2026-04-26 01:12 | 42.01671 | -107.89174 | 36824 ft | 479 kts | 149° |
| 2026-04-26 01:13 | 41.96539 | -107.83516 | 36822 ft | 480 kts | 149° |
| 2026-04-26 01:13 | 41.91356 | -107.77814 | 36833 ft | 482 kts | 149° |
| 2026-04-26 01:14 | 41.86151 | -107.72098 | 36819 ft | 484 kts | 149° |
| 2026-04-26 01:14 | 41.80953 | -107.66348 | 36817 ft | 488 kts | 145° |
| 2026-04-26 01:15 | 41.76255 | -107.59658 | 36828 ft | 496 kts | 138° |
| 2026-04-26 01:15 | 41.71761 | -107.52632 | 36832 ft | 496 kts | 138° |
| 2026-04-26 01:16 | 41.67213 | -107.45696 | 36806 ft | 495 kts | 139° |
| 2026-04-26 01:16 | 41.62618 | -107.38864 | 36838 ft | 493 kts | 140° |
| 2026-04-26 01:17 | 41.58020 | -107.32070 | 36827 ft | 492 kts | 140° |
| 2026-04-26 01:17 | 41.53453 | -107.25326 | 36830 ft | 491 kts | 140° |
| 2026-04-26 01:18 | 41.48868 | -107.18565 | 36814 ft | 491 kts | 140° |
| 2026-04-26 01:18 | 41.45055 | -107.12953 | 36814 ft | 490 kts | 140° |
| 2026-04-26 01:19 | 41.40472 | -107.06219 | 36824 ft | 490 kts | 140° |
| 2026-04-26 01:19 | 41.35147 | -106.98420 | 36816 ft | 490 kts | 140° |
| 2026-04-26 01:20 | 41.31302 | -106.92798 | 36815 ft | 489 kts | 140° |
| 2026-04-26 01:20 | 41.26719 | -106.86107 | 36881 ft | 490 kts | 140° |
| 2026-04-26 01:21 | 41.22153 | -106.79457 | 36864 ft | 490 kts | 140° |
| 2026-04-26 01:21 | 41.17552 | -106.72769 | 36843 ft | 491 kts | 140° |
| 2026-04-26 01:22 | 41.12932 | -106.66066 | 36823 ft | 491 kts | 140° |
| 2026-04-26 01:22 | 41.08313 | -106.59378 | 36827 ft | 491 kts | 140° |
| 2026-04-26 01:23 | 41.03681 | -106.52707 | 36648 ft | 497 kts | 138° |
| 2026-04-26 01:23 | 41.01371 | -106.49280 | 36335 ft | 497 kts | 140° |
| 2026-04-26 01:23 | 40.99036 | -106.45922 | 35613 ft | 496 kts | 141° |
| 2026-04-26 01:24 | 40.96675 | -106.42619 | 35183 ft | 489 kts | 141° |
| 2026-04-26 01:24 | 40.94391 | -106.39353 | 34956 ft | 480 kts | 140° |
| 2026-04-26 01:24 | 40.92127 | -106.36095 | 34715 ft | 484 kts | 140° |
| 2026-04-26 01:24 | 40.89829 | -106.32803 | 34456 ft | 491 kts | 141° |
| 2026-04-26 01:25 | 40.87500 | -106.29467 | 34259 ft | 497 kts | 141° |
| 2026-04-26 01:25 | 40.85193 | -106.26125 | 34009 ft | 501 kts | 137° |
| 2026-04-26 01:25 | 40.83246 | -106.22235 | 33713 ft | 516 kts | 122° |
| 2026-04-26 01:25 | 40.81720 | -106.17939 | 32830 ft | 519 kts | 120° |
| 2026-04-26 01:26 | 40.80273 | -106.13588 | 32045 ft | 517 kts | 119° |
| 2026-04-26 01:26 | 40.78821 | -106.09230 | 31222 ft | 517 kts | 120° |
| 2026-04-26 01:26 | 40.77345 | -106.04917 | 30343 ft | 517 kts | 120° |
| 2026-04-26 01:26 | 40.75832 | -106.00630 | 29635 ft | 513 kts | 121° |
| 2026-04-26 01:27 | 40.74315 | -105.96384 | 28924 ft | 507 kts | 121° |
| 2026-04-26 01:27 | 40.72817 | -105.92205 | 28289 ft | 500 kts | 121° |
| 2026-04-26 01:27 | 40.71341 | -105.88088 | 27683 ft | 492 kts | 120° |
| 2026-04-26 01:27 | 40.69891 | -105.84033 | 27078 ft | 486 kts | 120° |
| 2026-04-26 01:28 | 40.68473 | -105.80088 | 26498 ft | 479 kts | 120° |
| 2026-04-26 01:28 | 40.67054 | -105.76152 | 25928 ft | 472 kts | 120° |
| 2026-04-26 01:28 | 40.65656 | -105.72275 | 25369 ft | 466 kts | 120° |
| 2026-04-26 01:28 | 40.64272 | -105.68444 | 24803 ft | 460 kts | 120° |
| 2026-04-26 01:29 | 40.62912 | -105.64678 | 24392 ft | 451 kts | 120° |
| 2026-04-26 01:29 | 40.61579 | -105.60988 | 24010 ft | 442 kts | 120° |
| 2026-04-26 01:29 | 40.60268 | -105.57367 | 23625 ft | 433 kts | 120° |
| 2026-04-26 01:29 | 40.58977 | -105.53810 | 23173 ft | 430 kts | 120° |
| 2026-04-26 01:30 | 40.57694 | -105.50282 | 22726 ft | 425 kts | 120° |
| 2026-04-26 01:30 | 40.56426 | -105.46794 | 22370 ft | 419 kts | 120° |
| 2026-04-26 01:30 | 40.55176 | -105.43355 | 21967 ft | 412 kts | 120° |
| 2026-04-26 01:30 | 40.53951 | -105.39989 | 21571 ft | 405 kts | 120° |
| 2026-04-26 01:31 | 40.52744 | -105.36684 | 21147 ft | 398 kts | 120° |
| 2026-04-26 01:31 | 40.51556 | -105.33436 | 20788 ft | 391 kts | 120° |
| 2026-04-26 01:31 | 40.50384 | -105.30232 | 20398 ft | 387 kts | 120° |
| 2026-04-26 01:31 | 40.49221 | -105.27055 | 20024 ft | 385 kts | 120° |
| 2026-04-26 01:32 | 40.48064 | -105.23898 | 19632 ft | 382 kts | 120° |
| 2026-04-26 01:32 | 40.46919 | -105.20775 | 19264 ft | 377 kts | 120° |
| 2026-04-26 01:32 | 40.45591 | -105.17931 | 18900 ft | 363 kts | 137° |
| 2026-04-26 01:32 | 40.43744 | -105.15827 | 18772 ft | 344 kts | 149° |
| 2026-04-26 01:33 | 40.41823 | -105.14031 | 18605 ft | 336 kts | 151° |
| 2026-04-26 01:33 | 40.39907 | -105.12303 | 18424 ft | 332 kts | 151° |
| 2026-04-26 01:33 | 40.38004 | -105.10589 | 18274 ft | 330 kts | 151° |
| 2026-04-26 01:33 | 40.36122 | -105.08878 | 18104 ft | 328 kts | 150° |
| 2026-04-26 01:34 | 40.34254 | -105.07165 | 17916 ft | 327 kts | 150° |
| 2026-04-26 01:34 | 40.32401 | -105.05457 | 17748 ft | 325 kts | 150° |
| 2026-04-26 01:34 | 40.30552 | -105.03748 | 17592 ft | 326 kts | 150° |
| 2026-04-26 01:34 | 40.28687 | -105.02023 | 17449 ft | 330 kts | 150° |
| 2026-04-26 01:35 | 40.26804 | -105.00280 | 17313 ft | 331 kts | 150° |
| 2026-04-26 01:35 | 40.24934 | -104.98549 | 17137 ft | 329 kts | 150° |
| 2026-04-26 01:35 | 40.23068 | -104.96823 | 16971 ft | 327 kts | 150° |
| 2026-04-26 01:35 | 40.21202 | -104.95100 | 16718 ft | 330 kts | 149° |
| 2026-04-26 01:36 | 40.19320 | -104.93364 | 16425 ft | 332 kts | 149° |
| 2026-04-26 01:36 | 40.17380 | -104.91765 | 16122 ft | 326 kts | 158° |
| 2026-04-26 01:36 | 40.15341 | -104.90573 | 15830 ft | 317 kts | 162° |
| 2026-04-26 01:37 | 40.11309 | -104.88446 | 15284 ft | 310 kts | 161° |
| 2026-04-26 01:37 | 40.09315 | -104.87357 | 15014 ft | 310 kts | 161° |
| 2026-04-26 01:37 | 40.07335 | -104.86253 | 14767 ft | 309 kts | 160° |
| 2026-04-26 01:37 | 40.05359 | -104.85144 | 14499 ft | 309 kts | 160° |
| 2026-04-26 01:38 | 40.03386 | -104.84027 | 14232 ft | 309 kts | 160° |
| 2026-04-26 01:38 | 40.01421 | -104.82902 | 13965 ft | 308 kts | 160° |
| 2026-04-26 01:38 | 39.99454 | -104.81777 | 13691 ft | 308 kts | 160° |
| 2026-04-26 01:38 | 39.97479 | -104.80698 | 13389 ft | 306 kts | 166° |
| 2026-04-26 01:39 | 39.95403 | -104.80365 | 13101 ft | 298 kts | 183° |
| 2026-04-26 01:39 | 39.93340 | -104.80427 | 12818 ft | 295 kts | 185° |
| 2026-04-26 01:39 | 39.91299 | -104.80512 | 12577 ft | 292 kts | 184° |
| 2026-04-26 01:39 | 39.89279 | -104.80590 | 12319 ft | 289 kts | 184° |
| 2026-04-26 01:40 | 39.87310 | -104.80658 | 12062 ft | 285 kts | 184° |
| 2026-04-26 01:40 | 39.85326 | -104.80718 | 11809 ft | 278 kts | 184° |
| 2026-04-26 01:40 | 39.83412 | -104.80771 | 11562 ft | 272 kts | 183° |
| 2026-04-26 01:40 | 39.81540 | -104.80821 | 11321 ft | 266 kts | 183° |
| 2026-04-26 01:41 | 39.79733 | -104.80869 | 11064 ft | 260 kts | 183° |
| 2026-04-26 01:41 | 39.77943 | -104.80927 | 10856 ft | 253 kts | 184° |
| 2026-04-26 01:41 | 39.76239 | -104.81011 | 10909 ft | 240 kts | 184° |
| 2026-04-26 01:41 | 39.74565 | -104.81106 | 10959 ft | 244 kts | 184° |
| 2026-04-26 01:42 | 39.72842 | -104.81206 | 10979 ft | 253 kts | 184° |
| 2026-04-26 01:42 | 39.71053 | -104.81392 | 10982 ft | 264 kts | 185° |
| 2026-04-26 01:42 | 39.69177 | -104.81470 | 10988 ft | 276 kts | 183° |
| 2026-04-26 01:42 | 39.67228 | -104.81537 | 10986 ft | 282 kts | 183° |
| 2026-04-26 01:43 | 39.65277 | -104.81472 | 10927 ft | 280 kts | 168° |
| 2026-04-26 01:43 | 39.63577 | -104.80350 | 10857 ft | 271 kts | 143° |
| 2026-04-26 01:43 | 39.62371 | -104.78541 | 10749 ft | 261 kts | 124° |
| 2026-04-26 01:43 | 39.61696 | -104.76405 | 10626 ft | 253 kts | 106° |
| 2026-04-26 01:44 | 39.61591 | -104.74142 | 10338 ft | 254 kts | 87° |
| 2026-04-26 01:44 | 39.62080 | -104.71959 | 10063 ft | 247 kts | 66° |
| 2026-04-26 01:44 | 39.63052 | -104.70247 | 9912 ft | 229 kts | 46° |
| 2026-04-26 01:44 | 39.64436 | -104.69298 | 9314 ft | 229 kts | 7° |
| 2026-04-26 01:45 | 39.66002 | -104.69185 | 8853 ft | 223 kts | 1° |
| 2026-04-26 01:45 | 39.67534 | -104.69130 | 8396 ft | 217 kts | 2° |
| 2026-04-26 01:45 | 39.68996 | -104.69023 | 8246 ft | 208 kts | 5° |
| 2026-04-26 01:45 | 39.70466 | -104.68922 | 8087 ft | 215 kts | 2° |
| 2026-04-26 01:46 | 39.71960 | -104.68882 | 7909 ft | 219 kts | 2° |
| 2026-04-26 01:46 | 39.73481 | -104.68864 | 7747 ft | 217 kts | 2° |
| 2026-04-26 01:46 | 39.74981 | -104.68854 | 7574 ft | 214 kts | 2° |
| 2026-04-26 01:46 | 39.76454 | -104.68865 | 7403 ft | 210 kts | 1° |
| 2026-04-26 01:47 | 39.77914 | -104.68883 | 7142 ft | 212 kts | 3° |
| 2026-04-26 01:47 | 39.79408 | -104.68877 | 6758 ft | 214 kts | 5° |
| 2026-04-26 01:47 | 39.80859 | -104.68830 | 6575 ft | 199 kts | 6° |
| 2026-04-26 01:47 | 39.82190 | -104.68763 | 6377 ft | 183 kts | 5° |
| 2026-04-26 01:48 | 39.83409 | -104.68742 | 6099 ft | 166 kts | 4° |
| 2026-04-26 01:48 | 39.84488 | -104.68733 | 5845 ft | 142 kts | 4° |
| 2026-04-26 01:48 | 39.85404 | -104.68727 | 5602 ft | 124 kts | 8° |
| 2026-04-26 01:48 | 39.86306 | -104.68723 | 5441 ft | 131 kts | 6° |
| 2026-04-26 01:49 | 39.87194 | -104.68711 | 5367 ft | 118 kts | 5° |
| 2026-04-26 01:49 | 39.87894 | -104.68699 | 5367 ft | 79 kts | 0° |
| 2026-04-26 01:49 | 39.88293 | -104.68690 | 5363 ft | 37 kts | 4° |
| 2026-04-26 01:49 | 39.88482 | -104.68655 | 5363 ft | 23 kts | 17° |
| 2026-04-26 01:50 | 39.88613 | -104.68553 | 5365 ft | 18 kts | 64° |
| 2026-04-26 01:50 | 39.88553 | -104.68479 | 5364 ft | 14 kts | 175° |
| 2026-04-26 01:50 | 39.88461 | -104.68481 | 5364 ft | 13 kts | 180° |
| 2026-04-26 01:50 | 39.88371 | -104.68481 | 5362 ft | 13 kts | 180° |
| 2026-04-26 01:51 | 39.88284 | -104.68482 | 5363 ft | 12 kts | 180° |
| 2026-04-26 01:51 | 39.88199 | -104.68483 | 5362 ft | 12 kts | 180° |
| 2026-04-26 01:51 | 39.88116 | -104.68483 | 5364 ft | 12 kts | 180° |
| 2026-04-26 01:51 | 39.88036 | -104.68484 | 5364 ft | 11 kts | 180° |
| 2026-04-26 01:52 | 39.87957 | -104.68484 | 5364 ft | 11 kts | 180° |
| 2026-04-26 01:52 | 39.87876 | -104.68484 | 5364 ft | 13 kts | 180° |
| 2026-04-26 01:52 | 39.87774 | -104.68487 | 5364 ft | 16 kts | 181° |
| 2026-04-26 01:52 | 39.87650 | -104.68492 | 5364 ft | 19 kts | 181° |
| 2026-04-26 01:53 | 39.87509 | -104.68496 | 5363 ft | 20 kts | 176° |
| 2026-04-26 01:53 | 39.87404 | -104.68403 | 5362 ft | 20 kts | 130° |
| 2026-04-26 01:53 | 39.87275 | -104.68377 | 5364 ft | 19 kts | 181° |
| 2026-04-26 01:53 | 39.87144 | -104.68382 | 5363 ft | 19 kts | 181° |
| 2026-04-26 01:54 | 39.87017 | -104.68384 | 5363 ft | 18 kts | 181° |
| 2026-04-26 01:54 | 39.86871 | -104.68385 | 5362 ft | 27 kts | 179° |
| 2026-04-26 01:54 | 39.86667 | -104.68390 | 5365 ft | 30 kts | 181° |
| 2026-04-26 01:54 | 39.86462 | -104.68394 | 5363 ft | 29 kts | 181° |
| 2026-04-26 01:55 | 39.86270 | -104.68395 | 5365 ft | 27 kts | 178° |
| 2026-04-26 01:55 | 39.86091 | -104.68390 | 5364 ft | 25 kts | 180° |
| 2026-04-26 01:55 | 39.85925 | -104.68392 | 5365 ft | 23 kts | 180° |
| 2026-04-26 01:55 | 39.85767 | -104.68392 | 5364 ft | 22 kts | 175° |
| 2026-04-26 01:56 | 39.85683 | -104.68253 | 5365 ft | 22 kts | 92° |
| 2026-04-26 01:56 | 39.85685 | -104.68059 | 5365 ft | 21 kts | 86° |
| 2026-04-26 01:56 | 39.85696 | -104.67871 | 5365 ft | 20 kts | 85° |
| 2026-04-26 01:56 | 39.85707 | -104.67689 | 5365 ft | 20 kts | 85° |
| 2026-04-26 01:57 | 39.85722 | -104.67513 | 5364 ft | 19 kts | 83° |
| 2026-04-26 01:57 | 39.85735 | -104.67343 | 5364 ft | 19 kts | 90° |
| 2026-04-26 01:57 | 39.85734 | -104.67177 | 5365 ft | 18 kts | 90° |
| 2026-04-26 01:57 | 39.85733 | -104.67103 | 5365 ft | 2 kts | 90° |
| 2026-04-26 01:58 | 39.85751 | -104.67079 | 5363 ft | 6 kts | 12° |
| 2026-04-26 01:58 | 39.85791 | -104.67080 | 5363 ft | 6 kts | 0° |
| 2026-04-26 01:58 | 39.85804 | -104.67080 | 5364 ft | 1 kts | 0° |
| 2026-04-26 01:58 | 39.85806 | -104.67080 | 5365 ft | 0 kts | 0° |